sensor_id;sensor_type;location;lat;lon;timestamp;temperature;humidity
573;DHT22;271;51.114;13.780;2023-01-10T00:01:26;6.30;1.00
573;DHT22;271;51.114;13.780;2023-01-10T00:03:54;6.30;1.00
573;DHT22;271;51.114;13.780;2023-01-10T00:06:21;6.40;1.00
573;DHT22;271;51.114;13.780;2023-01-10T00:08:50;6.30;1.00
573;DHT22;271;51.114;13.780;2023-01-10T00:11:17;6.40;1.00
573;DHT22;271;51.114;13.780;2023-01-10T00:14:05;6.40;1.00
573;DHT22;271;51.114;13.780;2023-01-10T00:16:32;6.40;1.00
573;DHT22;271;51.114;13.780;2023-01-10T00:19:02;6.40;1.00
573;DHT22;271;51.114;13.780;2023-01-10T00:21:29;6.50;1.00
573;DHT22;271;51.114;13.780;2023-01-10T00:23:58;6.50;1.00
573;DHT22;271;51.114;13.780;2023-01-10T00:26:38;6.40;1.00
573;DHT22;271;51.114;13.780;2023-01-10T00:29:07;6.40;1.00
573;DHT22;271;51.114;13.780;2023-01-10T00:31:34;6.40;1.00
573;DHT22;271;51.114;13.780;2023-01-10T00:34:01;6.40;1.00
573;DHT22;271;51.114;13.780;2023-01-10T00:36:29;6.40;1.00
573;DHT22;271;51.114;13.780;2023-01-10T00:38:57;6.50;1.00
573;DHT22;271;51.114;13.780;2023-01-10T00:41:25;6.40;1.00
573;DHT22;271;51.114;13.780;2023-01-10T00:44:12;6.50;1.00
573;DHT22;271;51.114;13.780;2023-01-10T00:46:39;6.40;1.00
573;DHT22;271;51.114;13.780;2023-01-10T00:49:06;6.40;1.00
573;DHT22;271;51.114;13.780;2023-01-10T00:51:35;6.50;1.00
573;DHT22;271;51.114;13.780;2023-01-10T00:54:04;6.50;1.00
573;DHT22;271;51.114;13.780;2023-01-10T00:56:32;6.50;1.00
573;DHT22;271;51.114;13.780;2023-01-10T00:58:59;6.60;1.00
573;DHT22;271;51.114;13.780;2023-01-10T01:01:26;6.40;1.00
573;DHT22;271;51.114;13.780;2023-01-10T01:03:54;6.50;1.00
573;DHT22;271;51.114;13.780;2023-01-10T01:06:21;6.40;1.00
573;DHT22;271;51.114;13.780;2023-01-10T01:08:49;6.50;1.00
573;DHT22;271;51.114;13.780;2023-01-10T01:11:17;6.40;1.00
573;DHT22;271;51.114;13.780;2023-01-10T01:13:45;6.50;1.00
573;DHT22;271;51.114;13.780;2023-01-10T01:16:12;6.50;1.00
573;DHT22;271;51.114;13.780;2023-01-10T01:18:39;6.40;1.00
573;DHT22;271;51.114;13.780;2023-01-10T01:21:07;6.40;1.00
573;DHT22;271;51.114;13.780;2023-01-10T01:23:34;6.40;1.00
573;DHT22;271;51.114;13.780;2023-01-10T01:26:02;6.40;1.00
573;DHT22;271;51.114;13.780;2023-01-10T01:28:32;6.50;1.00
573;DHT22;271;51.114;13.780;2023-01-10T01:31:06;6.50;1.00
573;DHT22;271;51.114;13.780;2023-01-10T01:33:33;6.40;1.00
573;DHT22;271;51.114;13.780;2023-01-10T01:36:01;6.50;1.00
573;DHT22;271;51.114;13.780;2023-01-10T01:38:28;6.40;1.00
573;DHT22;271;51.114;13.780;2023-01-10T01:40:55;6.40;1.00
573;DHT22;271;51.114;13.780;2023-01-10T01:43:25;6.40;1.00
573;DHT22;271;51.114;13.780;2023-01-10T01:45:55;6.50;1.00
573;DHT22;271;51.114;13.780;2023-01-10T01:48:32;6.50;1.00
573;DHT22;271;51.114;13.780;2023-01-10T01:51:03;6.50;1.00
573;DHT22;271;51.114;13.780;2023-01-10T01:53:39;6.50;1.00
573;DHT22;271;51.114;13.780;2023-01-10T01:56:11;6.50;1.00
573;DHT22;271;51.114;13.780;2023-01-10T01:58:45;6.40;1.00
573;DHT22;271;51.114;13.780;2023-01-10T02:01:16;6.50;1.00
573;DHT22;271;51.114;13.780;2023-01-10T02:03:47;6.40;1.00
573;DHT22;271;51.114;13.780;2023-01-10T02:06:17;6.40;1.00
573;DHT22;271;51.114;13.780;2023-01-10T02:08:49;6.40;1.00
573;DHT22;271;51.114;13.780;2023-01-10T02:11:19;6.40;1.00
573;DHT22;271;51.114;13.780;2023-01-10T02:13:47;6.40;1.00
573;DHT22;271;51.114;13.780;2023-01-10T02:16:16;6.40;1.00
573;DHT22;271;51.114;13.780;2023-01-10T02:18:43;6.50;1.00
573;DHT22;271;51.114;13.780;2023-01-10T02:21:31;6.50;1.00
573;DHT22;271;51.114;13.780;2023-01-10T02:24:26;6.50;1.00
573;DHT22;271;51.114;13.780;2023-01-10T02:27:09;6.40;1.00
573;DHT22;271;51.114;13.780;2023-01-10T02:30:20;6.40;1.00
573;DHT22;271;51.114;13.780;2023-01-10T02:33:00;6.40;1.00
573;DHT22;271;51.114;13.780;2023-01-10T02:35:44;6.40;1.00
573;DHT22;271;51.114;13.780;2023-01-10T02:38:23;6.40;1.00
573;DHT22;271;51.114;13.780;2023-01-10T02:41:00;6.30;1.00
573;DHT22;271;51.114;13.780;2023-01-10T02:43:33;6.30;1.00
573;DHT22;271;51.114;13.780;2023-01-10T02:46:06;6.20;1.00
573;DHT22;271;51.114;13.780;2023-01-10T02:48:36;6.20;1.00
573;DHT22;271;51.114;13.780;2023-01-10T02:51:07;6.20;1.00
573;DHT22;271;51.114;13.780;2023-01-10T02:53:40;6.30;1.00
573;DHT22;271;51.114;13.780;2023-01-10T02:59:27;6.20;1.00
573;DHT22;271;51.114;13.780;2023-01-10T03:02:01;6.20;1.00
573;DHT22;271;51.114;13.780;2023-01-10T03:04:40;6.20;1.00
573;DHT22;271;51.114;13.780;2023-01-10T03:07:17;6.20;1.00
573;DHT22;271;51.114;13.780;2023-01-10T03:09:52;6.10;1.00
573;DHT22;271;51.114;13.780;2023-01-10T03:12:23;6.20;1.00
573;DHT22;271;51.114;13.780;2023-01-10T03:14:54;6.20;1.00
573;DHT22;271;51.114;13.780;2023-01-10T03:17:24;6.30;1.00
573;DHT22;271;51.114;13.780;2023-01-10T03:19:57;6.20;1.00
573;DHT22;271;51.114;13.780;2023-01-10T03:22:28;6.20;1.00
573;DHT22;271;51.114;13.780;2023-01-10T03:24:58;6.10;1.00
573;DHT22;271;51.114;13.780;2023-01-10T03:27:32;6.10;1.00
573;DHT22;271;51.114;13.780;2023-01-10T03:30:11;6.10;1.00
573;DHT22;271;51.114;13.780;2023-01-10T03:32:42;6.00;1.00
573;DHT22;271;51.114;13.780;2023-01-10T03:35:12;6.00;1.00
573;DHT22;271;51.114;13.780;2023-01-10T03:37:45;6.00;1.00
573;DHT22;271;51.114;13.780;2023-01-10T03:40:21;6.00;1.00
573;DHT22;271;51.114;13.780;2023-01-10T03:42:53;6.10;1.00
573;DHT22;271;51.114;13.780;2023-01-10T03:45:43;6.10;1.00
573;DHT22;271;51.114;13.780;2023-01-10T03:48:16;6.10;1.00
573;DHT22;271;51.114;13.780;2023-01-10T03:50:46;6.00;1.00
573;DHT22;271;51.114;13.780;2023-01-10T03:53:14;6.00;1.00
573;DHT22;271;51.114;13.780;2023-01-10T03:55:43;6.00;1.00
573;DHT22;271;51.114;13.780;2023-01-10T03:58:11;6.00;1.00
573;DHT22;271;51.114;13.780;2023-01-10T04:00:38;6.10;1.00
573;DHT22;271;51.114;13.780;2023-01-10T04:03:07;6.10;1.00
573;DHT22;271;51.114;13.780;2023-01-10T04:05:36;6.20;1.00
573;DHT22;271;51.114;13.780;2023-01-10T04:08:05;6.10;1.00
573;DHT22;271;51.114;13.780;2023-01-10T04:10:32;6.10;1.00
573;DHT22;271;51.114;13.780;2023-01-10T04:13:00;6.10;1.00
573;DHT22;271;51.114;13.780;2023-01-10T04:15:28;6.10;1.00
573;DHT22;271;51.114;13.780;2023-01-10T04:17:55;6.10;1.00
573;DHT22;271;51.114;13.780;2023-01-10T04:20:23;6.10;1.00
573;DHT22;271;51.114;13.780;2023-01-10T04:22:52;6.20;1.00
573;DHT22;271;51.114;13.780;2023-01-10T04:25:21;6.10;1.00
573;DHT22;271;51.114;13.780;2023-01-10T04:27:50;6.10;1.00
573;DHT22;271;51.114;13.780;2023-01-10T04:30:18;6.10;1.00
573;DHT22;271;51.114;13.780;2023-01-10T04:32:46;6.10;1.00
573;DHT22;271;51.114;13.780;2023-01-10T04:35:14;6.10;1.00
573;DHT22;271;51.114;13.780;2023-01-10T04:37:42;6.00;1.00
573;DHT22;271;51.114;13.780;2023-01-10T04:40:10;6.10;1.00
573;DHT22;271;51.114;13.780;2023-01-10T04:42:39;6.10;1.00
573;DHT22;271;51.114;13.780;2023-01-10T04:45:07;6.00;1.00
573;DHT22;271;51.114;13.780;2023-01-10T04:47:36;6.10;1.00
573;DHT22;271;51.114;13.780;2023-01-10T04:50:04;6.10;1.00
573;DHT22;271;51.114;13.780;2023-01-10T04:52:32;6.10;1.00
573;DHT22;271;51.114;13.780;2023-01-10T04:54:59;6.10;1.00
573;DHT22;271;51.114;13.780;2023-01-10T04:57:27;6.20;1.00
573;DHT22;271;51.114;13.780;2023-01-10T04:59:55;6.20;1.00
573;DHT22;271;51.114;13.780;2023-01-10T05:02:23;6.10;1.00
573;DHT22;271;51.114;13.780;2023-01-10T05:04:50;6.10;1.00
573;DHT22;271;51.114;13.780;2023-01-10T05:07:17;6.10;1.00
573;DHT22;271;51.114;13.780;2023-01-10T05:09:45;6.00;1.00
573;DHT22;271;51.114;13.780;2023-01-10T05:12:13;6.10;1.00
573;DHT22;271;51.114;13.780;2023-01-10T05:14:40;6.10;1.00
573;DHT22;271;51.114;13.780;2023-01-10T05:17:09;6.10;1.00
573;DHT22;271;51.114;13.780;2023-01-10T05:19:36;6.20;1.00
573;DHT22;271;51.114;13.780;2023-01-10T05:22:03;6.20;1.00
573;DHT22;271;51.114;13.780;2023-01-10T05:24:31;6.10;1.00
573;DHT22;271;51.114;13.780;2023-01-10T05:26:58;6.10;1.00
573;DHT22;271;51.114;13.780;2023-01-10T05:29:26;6.10;1.00
573;DHT22;271;51.114;13.780;2023-01-10T05:31:53;6.10;1.00
573;DHT22;271;51.114;13.780;2023-01-10T05:34:22;6.10;1.00
573;DHT22;271;51.114;13.780;2023-01-10T05:36:49;6.20;1.00
573;DHT22;271;51.114;13.780;2023-01-10T05:39:16;6.20;1.00
573;DHT22;271;51.114;13.780;2023-01-10T05:41:44;6.30;1.00
573;DHT22;271;51.114;13.780;2023-01-10T05:44:11;6.10;1.00
573;DHT22;271;51.114;13.780;2023-01-10T05:46:39;6.10;1.00
573;DHT22;271;51.114;13.780;2023-01-10T05:49:06;6.10;1.00
573;DHT22;271;51.114;13.780;2023-01-10T05:51:35;6.20;1.00
573;DHT22;271;51.114;13.780;2023-01-10T05:54:02;6.10;1.00
573;DHT22;271;51.114;13.780;2023-01-10T05:56:30;6.10;1.00
573;DHT22;271;51.114;13.780;2023-01-10T05:58:57;6.10;1.00
573;DHT22;271;51.114;13.780;2023-01-10T06:01:24;6.10;1.00
573;DHT22;271;51.114;13.780;2023-01-10T06:03:52;6.10;1.00
573;DHT22;271;51.114;13.780;2023-01-10T06:06:19;6.10;1.00
573;DHT22;271;51.114;13.780;2023-01-10T06:08:48;6.10;1.00
573;DHT22;271;51.114;13.780;2023-01-10T06:11:15;6.10;1.00
573;DHT22;271;51.114;13.780;2023-01-10T06:13:43;6.10;1.00
573;DHT22;271;51.114;13.780;2023-01-10T06:16:10;6.10;1.00
573;DHT22;271;51.114;13.780;2023-01-10T06:18:37;6.10;1.00
573;DHT22;271;51.114;13.780;2023-01-10T06:21:05;6.10;1.00
573;DHT22;271;51.114;13.780;2023-01-10T06:23:32;6.10;1.00
573;DHT22;271;51.114;13.780;2023-01-10T06:26:01;6.20;1.00
573;DHT22;271;51.114;13.780;2023-01-10T06:28:29;6.10;1.00
573;DHT22;271;51.114;13.780;2023-01-10T06:30:56;6.00;1.00
573;DHT22;271;51.114;13.780;2023-01-10T06:33:23;6.10;1.00
573;DHT22;271;51.114;13.780;2023-01-10T06:35:51;6.20;1.00
573;DHT22;271;51.114;13.780;2023-01-10T06:38:37;6.30;1.00
573;DHT22;271;51.114;13.780;2023-01-10T06:41:26;6.10;1.00
573;DHT22;271;51.114;13.780;2023-01-10T06:44:13;6.10;1.00
573;DHT22;271;51.114;13.780;2023-01-10T06:47:01;6.10;1.00
573;DHT22;271;51.114;13.780;2023-01-10T06:49:49;6.10;1.00
573;DHT22;271;51.114;13.780;2023-01-10T06:52:37;6.10;1.00
573;DHT22;271;51.114;13.780;2023-01-10T06:55:25;6.10;1.00
573;DHT22;271;51.114;13.780;2023-01-10T06:58:14;6.10;1.00
573;DHT22;271;51.114;13.780;2023-01-10T07:01:04;6.10;1.00
573;DHT22;271;51.114;13.780;2023-01-10T07:03:51;6.10;1.00
573;DHT22;271;51.114;13.780;2023-01-10T07:06:39;6.10;1.00
573;DHT22;271;51.114;13.780;2023-01-10T07:09:27;6.10;1.00
573;DHT22;271;51.114;13.780;2023-01-10T07:12:15;6.00;1.00
573;DHT22;271;51.114;13.780;2023-01-10T07:15:05;6.00;1.00
573;DHT22;271;51.114;13.780;2023-01-10T07:17:55;6.00;1.00
573;DHT22;271;51.114;13.780;2023-01-10T07:20:43;6.00;1.00
573;DHT22;271;51.114;13.780;2023-01-10T07:23:31;6.10;1.00
573;DHT22;271;51.114;13.780;2023-01-10T07:26:19;6.00;1.00
573;DHT22;271;51.114;13.780;2023-01-10T07:29:07;6.10;1.00
573;DHT22;271;51.114;13.780;2023-01-10T07:31:56;6.00;1.00
573;DHT22;271;51.114;13.780;2023-01-10T07:34:43;6.00;1.00
573;DHT22;271;51.114;13.780;2023-01-10T07:37:31;6.00;1.00
573;DHT22;271;51.114;13.780;2023-01-10T07:40:19;6.10;1.00
573;DHT22;271;51.114;13.780;2023-01-10T07:43:06;6.10;1.00
573;DHT22;271;51.114;13.780;2023-01-10T07:45:57;6.10;1.00
573;DHT22;271;51.114;13.780;2023-01-10T07:48:46;6.10;1.00
573;DHT22;271;51.114;13.780;2023-01-10T07:51:34;6.00;1.00
573;DHT22;271;51.114;13.780;2023-01-10T07:54:22;6.00;1.00
573;DHT22;271;51.114;13.780;2023-01-10T07:57:09;5.90;1.00
573;DHT22;271;51.114;13.780;2023-01-10T07:59:57;5.90;1.00
573;DHT22;271;51.114;13.780;2023-01-10T08:02:45;5.90;1.00
573;DHT22;271;51.114;13.780;2023-01-10T08:05:34;5.80;1.00
573;DHT22;271;51.114;13.780;2023-01-10T08:08:22;5.90;1.00
573;DHT22;271;51.114;13.780;2023-01-10T08:11:10;5.90;1.00
573;DHT22;271;51.114;13.780;2023-01-10T08:13:57;6.00;1.00
573;DHT22;271;51.114;13.780;2023-01-10T08:16:45;6.00;1.00
573;DHT22;271;51.114;13.780;2023-01-10T08:19:32;6.00;1.00
573;DHT22;271;51.114;13.780;2023-01-10T08:22:21;6.00;1.00
573;DHT22;271;51.114;13.780;2023-01-10T08:25:09;6.00;1.00
573;DHT22;271;51.114;13.780;2023-01-10T08:27:57;6.00;1.00
573;DHT22;271;51.114;13.780;2023-01-10T08:30:45;6.10;1.00
573;DHT22;271;51.114;13.780;2023-01-10T08:33:33;6.00;1.00
573;DHT22;271;51.114;13.780;2023-01-10T08:36:20;6.10;1.00
573;DHT22;271;51.114;13.780;2023-01-10T08:39:10;6.10;1.00
573;DHT22;271;51.114;13.780;2023-01-10T08:41:58;6.10;1.00
573;DHT22;271;51.114;13.780;2023-01-10T08:44:46;6.20;1.00
573;DHT22;271;51.114;13.780;2023-01-10T08:47:33;6.30;1.00
573;DHT22;271;51.114;13.780;2023-01-10T08:50:21;6.20;1.00
573;DHT22;271;51.114;13.780;2023-01-10T08:53:09;6.20;1.00
573;DHT22;271;51.114;13.780;2023-01-10T08:56:00;6.20;1.00
573;DHT22;271;51.114;13.780;2023-01-10T08:58:48;6.30;1.00
573;DHT22;271;51.114;13.780;2023-01-10T09:01:36;6.30;1.00
573;DHT22;271;51.114;13.780;2023-01-10T09:04:23;6.30;1.00
573;DHT22;271;51.114;13.780;2023-01-10T09:07:11;6.20;1.00
573;DHT22;271;51.114;13.780;2023-01-10T09:09:59;6.20;1.00
573;DHT22;271;51.114;13.780;2023-01-10T09:12:48;6.30;1.00
573;DHT22;271;51.114;13.780;2023-01-10T09:15:41;6.50;1.00
573;DHT22;271;51.114;13.780;2023-01-10T09:18:29;6.60;1.00
573;DHT22;271;51.114;13.780;2023-01-10T09:21:17;6.60;1.00
573;DHT22;271;51.114;13.780;2023-01-10T09:24:06;6.60;1.00
573;DHT22;271;51.114;13.780;2023-01-10T09:26:53;6.60;1.00
573;DHT22;271;51.114;13.780;2023-01-10T09:29:42;6.60;1.00
573;DHT22;271;51.114;13.780;2023-01-10T09:32:30;6.60;1.00
573;DHT22;271;51.114;13.780;2023-01-10T09:35:18;6.60;1.00
573;DHT22;271;51.114;13.780;2023-01-10T09:38:10;6.50;1.00
573;DHT22;271;51.114;13.780;2023-01-10T09:41:12;6.70;1.00
573;DHT22;271;51.114;13.780;2023-01-10T09:44:05;6.50;1.00
573;DHT22;271;51.114;13.780;2023-01-10T09:47:03;6.50;1.00
573;DHT22;271;51.114;13.780;2023-01-10T09:50:03;6.60;1.00
573;DHT22;271;51.114;13.780;2023-01-10T09:52:55;6.40;1.00
573;DHT22;271;51.114;13.780;2023-01-10T09:55:45;6.30;1.00
573;DHT22;271;51.114;13.780;2023-01-10T09:58:36;6.30;1.00
573;DHT22;271;51.114;13.780;2023-01-10T10:01:28;6.10;1.00
573;DHT22;271;51.114;13.780;2023-01-10T10:04:24;6.10;1.00
573;DHT22;271;51.114;13.780;2023-01-10T10:07:14;6.10;1.00
573;DHT22;271;51.114;13.780;2023-01-10T10:10:04;6.10;1.00
573;DHT22;271;51.114;13.780;2023-01-10T10:13:00;6.10;1.00
573;DHT22;271;51.114;13.780;2023-01-10T10:15:55;6.10;1.00
573;DHT22;271;51.114;13.780;2023-01-10T10:18:55;6.20;1.00
573;DHT22;271;51.114;13.780;2023-01-10T10:21:54;6.30;1.00
573;DHT22;271;51.114;13.780;2023-01-10T10:24:53;6.30;1.00
573;DHT22;271;51.114;13.780;2023-01-10T10:27:58;6.40;1.00
573;DHT22;271;51.114;13.780;2023-01-10T10:30:56;6.40;1.00
573;DHT22;271;51.114;13.780;2023-01-10T10:33:53;6.40;1.00
573;DHT22;271;51.114;13.780;2023-01-10T10:36:46;6.50;1.00
573;DHT22;271;51.114;13.780;2023-01-10T10:39:39;6.50;1.00
573;DHT22;271;51.114;13.780;2023-01-10T10:42:31;6.50;1.00
573;DHT22;271;51.114;13.780;2023-01-10T10:45:34;6.60;1.00
573;DHT22;271;51.114;13.780;2023-01-10T10:48:26;6.60;1.00
573;DHT22;271;51.114;13.780;2023-01-10T10:51:21;6.70;1.00
573;DHT22;271;51.114;13.780;2023-01-10T10:54:11;6.80;1.00
573;DHT22;271;51.114;13.780;2023-01-10T10:57:01;6.90;1.00
573;DHT22;271;51.114;13.780;2023-01-10T10:59:49;7.00;1.00
573;DHT22;271;51.114;13.780;2023-01-10T11:02:40;7.20;1.00
573;DHT22;271;51.114;13.780;2023-01-10T11:05:34;7.10;1.00
573;DHT22;271;51.114;13.780;2023-01-10T11:08:23;7.10;1.00
573;DHT22;271;51.114;13.780;2023-01-10T11:11:17;7.00;1.00
573;DHT22;271;51.114;13.780;2023-01-10T11:14:08;7.00;1.00
573;DHT22;271;51.114;13.780;2023-01-10T11:17:22;7.10;1.00
573;DHT22;271;51.114;13.780;2023-01-10T11:20:14;7.10;1.00
573;DHT22;271;51.114;13.780;2023-01-10T11:23:03;7.10;1.00
573;DHT22;271;51.114;13.780;2023-01-10T11:25:51;7.20;1.00
573;DHT22;271;51.114;13.780;2023-01-10T11:28:39;7.10;1.00
573;DHT22;271;51.114;13.780;2023-01-10T11:31:28;7.30;1.00
573;DHT22;271;51.114;13.780;2023-01-10T11:34:22;7.20;1.00
573;DHT22;271;51.114;13.780;2023-01-10T11:37:19;7.10;1.00
573;DHT22;271;51.114;13.780;2023-01-10T11:40:18;7.10;1.00
573;DHT22;271;51.114;13.780;2023-01-10T11:43:23;7.10;1.00
573;DHT22;271;51.114;13.780;2023-01-10T11:46:14;7.20;1.00
573;DHT22;271;51.114;13.780;2023-01-10T11:49:05;7.30;1.00
573;DHT22;271;51.114;13.780;2023-01-10T11:52:02;7.30;1.00
573;DHT22;271;51.114;13.780;2023-01-10T11:54:51;7.50;1.00
573;DHT22;271;51.114;13.780;2023-01-10T11:57:39;7.50;1.00
573;DHT22;271;51.114;13.780;2023-01-10T12:00:33;7.50;1.00
573;DHT22;271;51.114;13.780;2023-01-10T12:03:24;7.50;1.00
573;DHT22;271;51.114;13.780;2023-01-10T12:06:16;7.50;1.00
573;DHT22;271;51.114;13.780;2023-01-10T12:09:35;7.60;1.00
573;DHT22;271;51.114;13.780;2023-01-10T12:12:24;7.70;1.00
573;DHT22;271;51.114;13.780;2023-01-10T12:15:23;7.80;1.00
573;DHT22;271;51.114;13.780;2023-01-10T12:18:11;7.90;1.00
573;DHT22;271;51.114;13.780;2023-01-10T12:20:59;7.80;1.00
573;DHT22;271;51.114;13.780;2023-01-10T12:23:50;7.90;1.00
573;DHT22;271;51.114;13.780;2023-01-10T12:26:38;7.80;1.00
573;DHT22;271;51.114;13.780;2023-01-10T12:29:30;7.90;1.00
573;DHT22;271;51.114;13.780;2023-01-10T12:32:22;7.80;1.00
573;DHT22;271;51.114;13.780;2023-01-10T12:35:14;7.70;1.00
573;DHT22;271;51.114;13.780;2023-01-10T12:38:14;7.80;1.00
573;DHT22;271;51.114;13.780;2023-01-10T12:41:08;7.90;1.00
573;DHT22;271;51.114;13.780;2023-01-10T12:44:21;7.90;1.00
573;DHT22;271;51.114;13.780;2023-01-10T12:47:20;7.90;1.00
573;DHT22;271;51.114;13.780;2023-01-10T12:50:12;7.90;1.00
573;DHT22;271;51.114;13.780;2023-01-10T12:53:04;7.90;1.00
573;DHT22;271;51.114;13.780;2023-01-10T12:55:55;7.90;1.00
573;DHT22;271;51.114;13.780;2023-01-10T12:58:49;7.90;1.00
573;DHT22;271;51.114;13.780;2023-01-10T13:01:38;8.00;1.00
573;DHT22;271;51.114;13.780;2023-01-10T13:06:03;8.00;1.00
573;DHT22;271;51.114;13.780;2023-01-10T13:17:01;7.80;1.00
573;DHT22;271;51.114;13.780;2023-01-10T13:24:15;7.80;1.00
573;DHT22;271;51.114;13.780;2023-01-10T13:27:18;7.70;1.00
573;DHT22;271;51.114;13.780;2023-01-10T13:30:25;7.80;1.00
573;DHT22;271;51.114;13.780;2023-01-10T13:33:20;7.70;1.00
573;DHT22;271;51.114;13.780;2023-01-10T13:36:10;7.70;1.00
573;DHT22;271;51.114;13.780;2023-01-10T13:39:00;7.80;1.00
573;DHT22;271;51.114;13.780;2023-01-10T13:42:12;7.70;1.00
573;DHT22;271;51.114;13.780;2023-01-10T13:45:27;7.70;1.00
573;DHT22;271;51.114;13.780;2023-01-10T13:48:25;7.50;1.00
573;DHT22;271;51.114;13.780;2023-01-10T13:51:15;7.50;1.00
573;DHT22;271;51.114;13.780;2023-01-10T13:54:15;7.50;1.00
573;DHT22;271;51.114;13.780;2023-01-10T14:00:48;7.50;1.00
573;DHT22;271;51.114;13.780;2023-01-10T14:03:55;7.50;1.00
573;DHT22;271;51.114;13.780;2023-01-10T14:06:51;7.40;1.00
573;DHT22;271;51.114;13.780;2023-01-10T14:09:43;7.40;1.00
573;DHT22;271;51.114;13.780;2023-01-10T14:12:34;7.50;1.00
573;DHT22;271;51.114;13.780;2023-01-10T14:15:26;7.50;1.00
573;DHT22;271;51.114;13.780;2023-01-10T14:18:19;7.50;1.00
573;DHT22;271;51.114;13.780;2023-01-10T14:21:18;7.50;1.00
573;DHT22;271;51.114;13.780;2023-01-10T14:24:22;7.50;1.00
573;DHT22;271;51.114;13.780;2023-01-10T14:27:14;7.50;1.00
573;DHT22;271;51.114;13.780;2023-01-10T14:30:05;7.30;1.00
573;DHT22;271;51.114;13.780;2023-01-10T14:32:56;7.40;1.00
573;DHT22;271;51.114;13.780;2023-01-10T14:35:50;7.30;1.00
573;DHT22;271;51.114;13.780;2023-01-10T14:38:43;7.40;1.00
573;DHT22;271;51.114;13.780;2023-01-10T14:41:34;7.30;1.00
573;DHT22;271;51.114;13.780;2023-01-10T14:44:28;7.30;1.00
573;DHT22;271;51.114;13.780;2023-01-10T14:47:26;7.30;1.00
573;DHT22;271;51.114;13.780;2023-01-10T14:50:25;7.30;1.00
573;DHT22;271;51.114;13.780;2023-01-10T14:53:24;7.30;1.00
573;DHT22;271;51.114;13.780;2023-01-10T14:56:22;7.30;1.00
573;DHT22;271;51.114;13.780;2023-01-10T14:59:17;7.40;1.00
573;DHT22;271;51.114;13.780;2023-01-10T15:02:14;7.30;1.00
573;DHT22;271;51.114;13.780;2023-01-10T15:05:10;7.30;1.00
573;DHT22;271;51.114;13.780;2023-01-10T15:08:19;7.20;1.00
573;DHT22;271;51.114;13.780;2023-01-10T15:11:10;7.20;1.00
573;DHT22;271;51.114;13.780;2023-01-10T15:14:04;7.20;1.00
573;DHT22;271;51.114;13.780;2023-01-10T15:16:57;7.20;1.00
573;DHT22;271;51.114;13.780;2023-01-10T15:19:49;7.20;1.00
573;DHT22;271;51.114;13.780;2023-01-10T15:22:38;7.10;1.00
573;DHT22;271;51.114;13.780;2023-01-10T15:25:29;7.10;1.00
573;DHT22;271;51.114;13.780;2023-01-10T15:28:18;7.10;1.00
573;DHT22;271;51.114;13.780;2023-01-10T15:31:07;7.00;1.00
573;DHT22;271;51.114;13.780;2023-01-10T15:33:57;7.00;1.00
573;DHT22;271;51.114;13.780;2023-01-10T15:36:48;6.90;1.00
573;DHT22;271;51.114;13.780;2023-01-10T15:39:38;6.90;1.00
573;DHT22;271;51.114;13.780;2023-01-10T15:42:26;7.00;1.00
573;DHT22;271;51.114;13.780;2023-01-10T15:45:26;7.00;1.00
573;DHT22;271;51.114;13.780;2023-01-10T15:48:28;7.00;1.00
573;DHT22;271;51.114;13.780;2023-01-10T15:51:23;7.00;1.00
573;DHT22;271;51.114;13.780;2023-01-10T15:54:28;7.00;1.00
573;DHT22;271;51.114;13.780;2023-01-10T15:57:25;6.90;1.00
573;DHT22;271;51.114;13.780;2023-01-10T16:00:15;6.90;1.00
573;DHT22;271;51.114;13.780;2023-01-10T16:03:13;6.90;1.00
573;DHT22;271;51.114;13.780;2023-01-10T16:06:06;6.90;1.00
573;DHT22;271;51.114;13.780;2023-01-10T16:09:06;6.80;1.00
573;DHT22;271;51.114;13.780;2023-01-10T16:14:40;6.80;1.00
573;DHT22;271;51.114;13.780;2023-01-10T16:17:38;6.80;1.00
573;DHT22;271;51.114;13.780;2023-01-10T16:32:11;6.70;1.00
573;DHT22;271;51.114;13.780;2023-01-10T16:35:08;6.80;1.00
573;DHT22;271;51.114;13.780;2023-01-10T16:37:59;6.80;1.00
573;DHT22;271;51.114;13.780;2023-01-10T16:40:52;6.70;1.00
573;DHT22;271;51.114;13.780;2023-01-10T16:43:41;6.60;1.00
573;DHT22;271;51.114;13.780;2023-01-10T16:46:29;6.70;1.00
573;DHT22;271;51.114;13.780;2023-01-10T16:49:18;6.70;1.00
573;DHT22;271;51.114;13.780;2023-01-10T16:52:05;6.70;1.00
573;DHT22;271;51.114;13.780;2023-01-10T16:54:53;6.80;1.00
573;DHT22;271;51.114;13.780;2023-01-10T16:57:41;6.70;1.00
573;DHT22;271;51.114;13.780;2023-01-10T17:00:33;6.70;1.00
573;DHT22;271;51.114;13.780;2023-01-10T17:03:23;6.70;1.00
573;DHT22;271;51.114;13.780;2023-01-10T17:06:13;6.60;1.00
573;DHT22;271;51.114;13.780;2023-01-10T17:09:01;6.60;1.00
573;DHT22;271;51.114;13.780;2023-01-10T17:11:52;6.60;1.00
573;DHT22;271;51.114;13.780;2023-01-10T17:14:42;6.60;1.00
573;DHT22;271;51.114;13.780;2023-01-10T17:17:32;6.60;1.00
573;DHT22;271;51.114;13.780;2023-01-10T17:20:19;6.60;1.00
573;DHT22;271;51.114;13.780;2023-01-10T17:23:09;6.60;1.00
573;DHT22;271;51.114;13.780;2023-01-10T17:26:01;6.60;1.00
573;DHT22;271;51.114;13.780;2023-01-10T17:28:50;6.60;1.00
573;DHT22;271;51.114;13.780;2023-01-10T17:31:37;6.50;1.00
573;DHT22;271;51.114;13.780;2023-01-10T17:34:26;6.50;1.00
573;DHT22;271;51.114;13.780;2023-01-10T17:37:15;6.60;1.00
573;DHT22;271;51.114;13.780;2023-01-10T17:40:04;6.60;1.00
573;DHT22;271;51.114;13.780;2023-01-10T17:42:53;6.60;1.00
573;DHT22;271;51.114;13.780;2023-01-10T17:45:41;6.60;1.00
573;DHT22;271;51.114;13.780;2023-01-10T17:48:29;6.50;1.00
573;DHT22;271;51.114;13.780;2023-01-10T17:51:18;6.50;1.00
573;DHT22;271;51.114;13.780;2023-01-10T17:54:08;6.50;1.00
573;DHT22;271;51.114;13.780;2023-01-10T17:56:55;6.50;1.00
573;DHT22;271;51.114;13.780;2023-01-10T17:59:43;6.60;1.00
573;DHT22;271;51.114;13.780;2023-01-10T18:02:31;6.50;1.00
573;DHT22;271;51.114;13.780;2023-01-10T18:05:19;6.50;1.00
573;DHT22;271;51.114;13.780;2023-01-10T18:08:08;6.50;1.00
573;DHT22;271;51.114;13.780;2023-01-10T18:10:59;6.50;1.00
573;DHT22;271;51.114;13.780;2023-01-10T18:13:47;6.30;1.00
573;DHT22;271;51.114;13.780;2023-01-10T18:16:35;6.30;1.00
573;DHT22;271;51.114;13.780;2023-01-10T18:19:23;6.40;1.00
573;DHT22;271;51.114;13.780;2023-01-10T18:22:10;6.30;1.00
573;DHT22;271;51.114;13.780;2023-01-10T18:25:17;6.30;1.00
573;DHT22;271;51.114;13.780;2023-01-10T18:28:04;6.30;1.00
573;DHT22;271;51.114;13.780;2023-01-10T18:30:52;6.30;1.00
573;DHT22;271;51.114;13.780;2023-01-10T18:33:40;6.30;1.00
573;DHT22;271;51.114;13.780;2023-01-10T18:36:28;6.20;1.00
573;DHT22;271;51.114;13.780;2023-01-10T18:39:16;6.20;1.00
573;DHT22;271;51.114;13.780;2023-01-10T18:42:05;6.20;1.00
573;DHT22;271;51.114;13.780;2023-01-10T18:44:53;6.20;1.00
573;DHT22;271;51.114;13.780;2023-01-10T18:47:40;6.20;1.00
573;DHT22;271;51.114;13.780;2023-01-10T18:50:28;6.10;1.00
573;DHT22;271;51.114;13.780;2023-01-10T18:53:16;6.20;1.00
573;DHT22;271;51.114;13.780;2023-01-10T18:56:05;6.10;1.00
573;DHT22;271;51.114;13.780;2023-01-10T18:58:54;6.10;1.00
573;DHT22;271;51.114;13.780;2023-01-10T19:01:44;6.00;1.00
573;DHT22;271;51.114;13.780;2023-01-10T19:04:31;6.00;1.00
573;DHT22;271;51.114;13.780;2023-01-10T19:07:19;5.90;1.00
573;DHT22;271;51.114;13.780;2023-01-10T19:10:09;5.90;1.00
573;DHT22;271;51.114;13.780;2023-01-10T19:12:57;5.70;1.00
573;DHT22;271;51.114;13.780;2023-01-10T19:15:48;5.70;1.00
573;DHT22;271;51.114;13.780;2023-01-10T19:18:36;5.70;1.00